sensor_id;sensor_type;location;lat;lon;timestamp;P1;durP1;ratioP1;P2;durP2;ratioP2
70487;SDS011;57976;48.174;16.370;2024-01-16T00:01:07;6.40;;;2.40;;
70487;SDS011;57976;48.174;16.370;2024-01-16T00:03:14;7.90;;;3.10;;
70487;SDS011;57976;48.174;16.370;2024-01-16T00:05:19;9.90;;;3.00;;
70487;SDS011;57976;48.174;16.370;2024-01-16T00:07:23;7.80;;;3.10;;
70487;SDS011;57976;48.174;16.370;2024-01-16T00:09:28;7.00;;;2.50;;
70487;SDS011;57976;48.174;16.370;2024-01-16T00:11:40;6.60;;;2.60;;
70487;SDS011;57976;48.174;16.370;2024-01-16T00:13:46;7.00;;;2.70;;
70487;SDS011;57976;48.174;16.370;2024-01-16T00:15:51;7.20;;;2.70;;
70487;SDS011;57976;48.174;16.370;2024-01-16T00:17:56;6.70;;;2.80;;
70487;SDS011;57976;48.174;16.370;2024-01-16T00:20:01;7.00;;;2.60;;
70487;SDS011;57976;48.174;16.370;2024-01-16T00:22:08;6.60;;;2.50;;
70487;SDS011;57976;48.174;16.370;2024-01-16T00:24:12;7.30;;;2.80;;
70487;SDS011;57976;48.174;16.370;2024-01-16T00:26:20;7.20;;;2.70;;
70487;SDS011;57976;48.174;16.370;2024-01-16T00:28:25;7.10;;;2.70;;
70487;SDS011;57976;48.174;16.370;2024-01-16T00:30:30;6.60;;;2.40;;
70487;SDS011;57976;48.174;16.370;2024-01-16T00:32:35;6.90;;;2.40;;
70487;SDS011;57976;48.174;16.370;2024-01-16T00:34:42;7.20;;;2.60;;
70487;SDS011;57976;48.174;16.370;2024-01-16T00:36:50;6.80;;;2.60;;
70487;SDS011;57976;48.174;16.370;2024-01-16T00:38:56;6.50;;;2.70;;
70487;SDS011;57976;48.174;16.370;2024-01-16T00:41:01;7.40;;;2.60;;
70487;SDS011;57976;48.174;16.370;2024-01-16T00:43:06;6.90;;;2.60;;
70487;SDS011;57976;48.174;16.370;2024-01-16T00:45:11;6.30;;;2.40;;
70487;SDS011;57976;48.174;16.370;2024-01-16T00:47:18;6.00;;;2.40;;
70487;SDS011;57976;48.174;16.370;2024-01-16T00:49:24;6.20;;;2.20;;
70487;SDS011;57976;48.174;16.370;2024-01-16T00:51:29;6.50;;;2.60;;
70487;SDS011;57976;48.174;16.370;2024-01-16T00:53:40;7.60;;;2.60;;
70487;SDS011;57976;48.174;16.370;2024-01-16T00:55:48;7.80;;;2.50;;
70487;SDS011;57976;48.174;16.370;2024-01-16T00:57:54;8.30;;;2.60;;
70487;SDS011;57976;48.174;16.370;2024-01-16T01:00:06;7.00;;;2.60;;
70487;SDS011;57976;48.174;16.370;2024-01-16T01:02:12;7.40;;;2.70;;
70487;SDS011;57976;48.174;16.370;2024-01-16T01:04:17;6.60;;;2.50;;
70487;SDS011;57976;48.174;16.370;2024-01-16T01:06:24;7.10;;;2.60;;
70487;SDS011;57976;48.174;16.370;2024-01-16T01:08:29;6.70;;;2.90;;
70487;SDS011;57976;48.174;16.370;2024-01-16T01:10:34;7.10;;;3.00;;
70487;SDS011;57976;48.174;16.370;2024-01-16T01:12:40;8.00;;;2.30;;
70487;SDS011;57976;48.174;16.370;2024-01-16T01:14:45;7.40;;;2.80;;
70487;SDS011;57976;48.174;16.370;2024-01-16T01:16:52;8.20;;;3.00;;
70487;SDS011;57976;48.174;16.370;2024-01-16T01:18:57;7.40;;;2.70;;
70487;SDS011;57976;48.174;16.370;2024-01-16T01:21:07;7.10;;;2.50;;
70487;SDS011;57976;48.174;16.370;2024-01-16T01:23:12;7.30;;;3.10;;
70487;SDS011;57976;48.174;16.370;2024-01-16T01:25:17;7.20;;;2.50;;
70487;SDS011;57976;48.174;16.370;2024-01-16T01:27:21;6.40;;;2.30;;
70487;SDS011;57976;48.174;16.370;2024-01-16T01:29:27;7.70;;;3.00;;
70487;SDS011;57976;48.174;16.370;2024-01-16T01:31:32;6.70;;;2.50;;
70487;SDS011;57976;48.174;16.370;2024-01-16T01:33:38;6.70;;;2.50;;
70487;SDS011;57976;48.174;16.370;2024-01-16T01:35:43;6.10;;;2.70;;
70487;SDS011;57976;48.174;16.370;2024-01-16T01:37:48;7.90;;;2.80;;
70487;SDS011;57976;48.174;16.370;2024-01-16T01:39:59;7.50;;;2.70;;
70487;SDS011;57976;48.174;16.370;2024-01-16T01:42:04;7.30;;;2.80;;
70487;SDS011;57976;48.174;16.370;2024-01-16T01:44:09;6.70;;;2.70;;
70487;SDS011;57976;48.174;16.370;2024-01-16T01:46:16;7.10;;;2.90;;
70487;SDS011;57976;48.174;16.370;2024-01-16T01:48:22;7.20;;;2.70;;
70487;SDS011;57976;48.174;16.370;2024-01-16T01:50:27;6.70;;;2.80;;
70487;SDS011;57976;48.174;16.370;2024-01-16T01:52:33;7.70;;;2.50;;
70487;SDS011;57976;48.174;16.370;2024-01-16T01:54:38;7.70;;;2.70;;
70487;SDS011;57976;48.174;16.370;2024-01-16T01:56:47;8.30;;;3.20;;
70487;SDS011;57976;48.174;16.370;2024-01-16T01:58:56;7.20;;;2.80;;
70487;SDS011;57976;48.174;16.370;2024-01-16T02:01:02;7.20;;;2.50;;
70487;SDS011;57976;48.174;16.370;2024-01-16T02:03:09;8.30;;;2.90;;
70487;SDS011;57976;48.174;16.370;2024-01-16T02:05:14;7.00;;;2.80;;
70487;SDS011;57976;48.174;16.370;2024-01-16T02:07:22;6.80;;;2.80;;
70487;SDS011;57976;48.174;16.370;2024-01-16T02:09:27;6.80;;;2.70;;
70487;SDS011;57976;48.174;16.370;2024-01-16T02:11:32;7.40;;;2.90;;
70487;SDS011;57976;48.174;16.370;2024-01-16T02:13:37;9.20;;;2.90;;
70487;SDS011;57976;48.174;16.370;2024-01-16T02:15:44;7.50;;;2.80;;
70487;SDS011;57976;48.174;16.370;2024-01-16T02:17:49;7.10;;;2.70;;
70487;SDS011;57976;48.174;16.370;2024-01-16T02:19:58;7.60;;;2.90;;
70487;SDS011;57976;48.174;16.370;2024-01-16T02:22:04;7.60;;;2.80;;
70487;SDS011;57976;48.174;16.370;2024-01-16T02:24:15;7.00;;;2.70;;
70487;SDS011;57976;48.174;16.370;2024-01-16T02:26:21;7.10;;;2.80;;
70487;SDS011;57976;48.174;16.370;2024-01-16T02:28:27;7.00;;;2.60;;
70487;SDS011;57976;48.174;16.370;2024-01-16T02:30:35;7.00;;;2.80;;
70487;SDS011;57976;48.174;16.370;2024-01-16T02:32:39;8.30;;;2.90;;
70487;SDS011;57976;48.174;16.370;2024-01-16T02:34:44;8.40;;;2.80;;
70487;SDS011;57976;48.174;16.370;2024-01-16T02:36:49;6.40;;;2.60;;
70487;SDS011;57976;48.174;16.370;2024-01-16T02:38:54;6.90;;;2.40;;
70487;SDS011;57976;48.174;16.370;2024-01-16T02:40:59;8.00;;;2.80;;
70487;SDS011;57976;48.174;16.370;2024-01-16T02:43:07;7.30;;;2.60;;
70487;SDS011;57976;48.174;16.370;2024-01-16T02:45:12;6.40;;;2.50;;
70487;SDS011;57976;48.174;16.370;2024-01-16T02:47:17;7.20;;;3.00;;
70487;SDS011;57976;48.174;16.370;2024-01-16T02:49:22;7.40;;;2.70;;
70487;SDS011;57976;48.174;16.370;2024-01-16T02:51:27;7.10;;;2.70;;
70487;SDS011;57976;48.174;16.370;2024-01-16T02:53:31;7.00;;;2.70;;
70487;SDS011;57976;48.174;16.370;2024-01-16T02:55:36;6.60;;;2.60;;
70487;SDS011;57976;48.174;16.370;2024-01-16T02:57:41;8.10;;;2.90;;
70487;SDS011;57976;48.174;16.370;2024-01-16T02:59:46;7.20;;;2.60;;
70487;SDS011;57976;48.174;16.370;2024-01-16T03:01:51;6.80;;;2.60;;
70487;SDS011;57976;48.174;16.370;2024-01-16T03:03:55;8.20;;;2.60;;
70487;SDS011;57976;48.174;16.370;2024-01-16T03:06:00;6.70;;;2.80;;
70487;SDS011;57976;48.174;16.370;2024-01-16T03:08:05;8.10;;;2.80;;
70487;SDS011;57976;48.174;16.370;2024-01-16T03:10:10;6.80;;;2.70;;
70487;SDS011;57976;48.174;16.370;2024-01-16T03:12:17;7.60;;;3.00;;
70487;SDS011;57976;48.174;16.370;2024-01-16T03:14:24;8.00;;;3.20;;
70487;SDS011;57976;48.174;16.370;2024-01-16T03:16:29;7.70;;;2.80;;
70487;SDS011;57976;48.174;16.370;2024-01-16T03:18:34;7.20;;;2.60;;
70487;SDS011;57976;48.174;16.370;2024-01-16T03:20:42;6.20;;;2.40;;
70487;SDS011;57976;48.174;16.370;2024-01-16T03:22:47;7.60;;;2.70;;
70487;SDS011;57976;48.174;16.370;2024-01-16T03:24:52;7.40;;;2.90;;
70487;SDS011;57976;48.174;16.370;2024-01-16T03:26:58;6.70;;;2.80;;
70487;SDS011;57976;48.174;16.370;2024-01-16T03:29:02;7.70;;;3.00;;
70487;SDS011;57976;48.174;16.370;2024-01-16T03:31:08;6.90;;;2.80;;
70487;SDS011;57976;48.174;16.370;2024-01-16T03:33:14;7.30;;;2.90;;
70487;SDS011;57976;48.174;16.370;2024-01-16T03:35:20;6.50;;;2.50;;
70487;SDS011;57976;48.174;16.370;2024-01-16T03:37:24;8.10;;;3.00;;
70487;SDS011;57976;48.174;16.370;2024-01-16T03:39:32;8.40;;;3.10;;
70487;SDS011;57976;48.174;16.370;2024-01-16T03:41:37;7.20;;;3.00;;
70487;SDS011;57976;48.174;16.370;2024-01-16T03:43:42;6.70;;;2.60;;
70487;SDS011;57976;48.174;16.370;2024-01-16T03:45:47;8.00;;;2.80;;
70487;SDS011;57976;48.174;16.370;2024-01-16T03:47:52;7.40;;;2.80;;
70487;SDS011;57976;48.174;16.370;2024-01-16T03:49:57;7.30;;;2.50;;
70487;SDS011;57976;48.174;16.370;2024-01-16T03:52:05;6.70;;;2.60;;
70487;SDS011;57976;48.174;16.370;2024-01-16T03:54:10;7.50;;;2.60;;
70487;SDS011;57976;48.174;16.370;2024-01-16T03:56:14;8.20;;;3.10;;
70487;SDS011;57976;48.174;16.370;2024-01-16T03:58:22;7.00;;;2.70;;
70487;SDS011;57976;48.174;16.370;2024-01-16T04:00:27;7.30;;;2.80;;
70487;SDS011;57976;48.174;16.370;2024-01-16T04:02:34;6.60;;;2.40;;
70487;SDS011;57976;48.174;16.370;2024-01-16T04:04:41;6.90;;;2.50;;
70487;SDS011;57976;48.174;16.370;2024-01-16T04:06:48;6.90;;;2.50;;
70487;SDS011;57976;48.174;16.370;2024-01-16T04:08:53;6.90;;;2.60;;
70487;SDS011;57976;48.174;16.370;2024-01-16T04:10:58;7.60;;;2.40;;
70487;SDS011;57976;48.174;16.370;2024-01-16T04:13:03;7.00;;;2.20;;
70487;SDS011;57976;48.174;16.370;2024-01-16T04:15:08;7.40;;;2.70;;
70487;SDS011;57976;48.174;16.370;2024-01-16T04:17:13;7.30;;;2.50;;
70487;SDS011;57976;48.174;16.370;2024-01-16T04:19:18;6.60;;;2.70;;
70487;SDS011;57976;48.174;16.370;2024-01-16T04:21:26;6.40;;;2.10;;
70487;SDS011;57976;48.174;16.370;2024-01-16T04:23:31;6.90;;;2.50;;
70487;SDS011;57976;48.174;16.370;2024-01-16T04:25:36;6.40;;;2.50;;
70487;SDS011;57976;48.174;16.370;2024-01-16T04:27:43;7.20;;;2.50;;
70487;SDS011;57976;48.174;16.370;2024-01-16T04:29:48;7.60;;;2.50;;
70487;SDS011;57976;48.174;16.370;2024-01-16T04:31:56;6.80;;;2.60;;
70487;SDS011;57976;48.174;16.370;2024-01-16T04:34:02;6.90;;;2.30;;
70487;SDS011;57976;48.174;16.370;2024-01-16T04:36:08;6.50;;;2.10;;
70487;SDS011;57976;48.174;16.370;2024-01-16T04:38:14;7.80;;;2.10;;
70487;SDS011;57976;48.174;16.370;2024-01-16T04:40:21;7.50;;;2.60;;
70487;SDS011;57976;48.174;16.370;2024-01-16T04:42:26;6.70;;;2.20;;
70487;SDS011;57976;48.174;16.370;2024-01-16T04:44:31;5.80;;;2.10;;
70487;SDS011;57976;48.174;16.370;2024-01-16T04:46:40;6.20;;;2.00;;
70487;SDS011;57976;48.174;16.370;2024-01-16T04:48:45;6.00;;;1.90;;
70487;SDS011;57976;48.174;16.370;2024-01-16T04:50:50;6.80;;;1.70;;
70487;SDS011;57976;48.174;16.370;2024-01-16T04:52:58;6.90;;;2.20;;
70487;SDS011;57976;48.174;16.370;2024-01-16T04:55:03;5.80;;;1.80;;
70487;SDS011;57976;48.174;16.370;2024-01-16T04:57:09;6.80;;;2.10;;
70487;SDS011;57976;48.174;16.370;2024-01-16T04:59:13;6.70;;;2.20;;
70487;SDS011;57976;48.174;16.370;2024-01-16T05:01:21;8.20;;;2.10;;
70487;SDS011;57976;48.174;16.370;2024-01-16T05:03:29;6.70;;;2.00;;
70487;SDS011;57976;48.174;16.370;2024-01-16T05:05:34;6.40;;;1.90;;
70487;SDS011;57976;48.174;16.370;2024-01-16T05:07:39;5.80;;;2.00;;
70487;SDS011;57976;48.174;16.370;2024-01-16T05:09:45;6.50;;;1.80;;
70487;SDS011;57976;48.174;16.370;2024-01-16T05:11:49;5.90;;;1.90;;
70487;SDS011;57976;48.174;16.370;2024-01-16T05:13:54;5.50;;;1.80;;
70487;SDS011;57976;48.174;16.370;2024-01-16T05:15:59;6.70;;;1.70;;
70487;SDS011;57976;48.174;16.370;2024-01-16T05:18:04;6.10;;;1.90;;
70487;SDS011;57976;48.174;16.370;2024-01-16T05:20:11;6.80;;;1.70;;
70487;SDS011;57976;48.174;16.370;2024-01-16T05:22:20;6.40;;;1.60;;
70487;SDS011;57976;48.174;16.370;2024-01-16T05:24:24;6.50;;;1.80;;
70487;SDS011;57976;48.174;16.370;2024-01-16T05:26:33;5.90;;;1.70;;
70487;SDS011;57976;48.174;16.370;2024-01-16T05:28:39;5.20;;;1.40;;
70487;SDS011;57976;48.174;16.370;2024-01-16T05:30:44;5.60;;;1.50;;
70487;SDS011;57976;48.174;16.370;2024-01-16T05:32:52;5.80;;;1.50;;
70487;SDS011;57976;48.174;16.370;2024-01-16T05:34:57;5.20;;;1.50;;
70487;SDS011;57976;48.174;16.370;2024-01-16T05:37:01;4.30;;;1.30;;
70487;SDS011;57976;48.174;16.370;2024-01-16T05:39:07;4.30;;;1.20;;
70487;SDS011;57976;48.174;16.370;2024-01-16T05:41:11;5.60;;;1.30;;
70487;SDS011;57976;48.174;16.370;2024-01-16T05:43:16;6.10;;;1.60;;
70487;SDS011;57976;48.174;16.370;2024-01-16T05:45:23;4.30;;;1.20;;
70487;SDS011;57976;48.174;16.370;2024-01-16T05:47:29;4.80;;;1.30;;
70487;SDS011;57976;48.174;16.370;2024-01-16T05:49:34;5.90;;;1.40;;
70487;SDS011;57976;48.174;16.370;2024-01-16T05:51:39;5.70;;;1.10;;
70487;SDS011;57976;48.174;16.370;2024-01-16T05:53:43;5.30;;;1.20;;
70487;SDS011;57976;48.174;16.370;2024-01-16T05:55:54;5.30;;;1.20;;
70487;SDS011;57976;48.174;16.370;2024-01-16T05:57:58;5.80;;;1.10;;
70487;SDS011;57976;48.174;16.370;2024-01-16T06:00:05;6.90;;;1.20;;
70487;SDS011;57976;48.174;16.370;2024-01-16T06:02:12;5.80;;;1.40;;
70487;SDS011;57976;48.174;16.370;2024-01-16T06:04:20;5.20;;;1.30;;
70487;SDS011;57976;48.174;16.370;2024-01-16T06:06:27;5.30;;;1.40;;
70487;SDS011;57976;48.174;16.370;2024-01-16T06:08:32;5.10;;;1.10;;
70487;SDS011;57976;48.174;16.370;2024-01-16T06:10:37;5.50;;;1.00;;
70487;SDS011;57976;48.174;16.370;2024-01-16T06:12:45;5.90;;;1.40;;
70487;SDS011;57976;48.174;16.370;2024-01-16T06:14:51;5.40;;;1.10;;
70487;SDS011;57976;48.174;16.370;2024-01-16T06:16:57;6.00;;;1.30;;
70487;SDS011;57976;48.174;16.370;2024-01-16T06:19:04;4.20;;;1.10;;
70487;SDS011;57976;48.174;16.370;2024-01-16T06:21:09;5.00;;;1.20;;
70487;SDS011;57976;48.174;16.370;2024-01-16T06:23:14;4.70;;;1.10;;
70487;SDS011;57976;48.174;16.370;2024-01-16T06:25:18;3.60;;;1.10;;
70487;SDS011;57976;48.174;16.370;2024-01-16T06:27:23;4.30;;;1.00;;
70487;SDS011;57976;48.174;16.370;2024-01-16T06:29:29;4.90;;;1.20;;
70487;SDS011;57976;48.174;16.370;2024-01-16T06:31:41;4.80;;;1.10;;
70487;SDS011;57976;48.174;16.370;2024-01-16T06:33:46;4.50;;;1.10;;
70487;SDS011;57976;48.174;16.370;2024-01-16T06:35:51;6.10;;;1.20;;
70487;SDS011;57976;48.174;16.370;2024-01-16T06:37:57;4.90;;;1.20;;
70487;SDS011;57976;48.174;16.370;2024-01-16T06:40:03;4.80;;;1.20;;
70487;SDS011;57976;48.174;16.370;2024-01-16T06:42:09;5.10;;;1.10;;
70487;SDS011;57976;48.174;16.370;2024-01-16T06:44:15;5.50;;;1.00;;
70487;SDS011;57976;48.174;16.370;2024-01-16T06:46:23;4.80;;;0.90;;
70487;SDS011;57976;48.174;16.370;2024-01-16T06:48:30;3.50;;;0.90;;
70487;SDS011;57976;48.174;16.370;2024-01-16T06:50:38;4.60;;;1.20;;
70487;SDS011;57976;48.174;16.370;2024-01-16T06:52:43;3.90;;;1.00;;
70487;SDS011;57976;48.174;16.370;2024-01-16T06:54:47;5.10;;;1.20;;
70487;SDS011;57976;48.174;16.370;2024-01-16T06:56:55;5.60;;;1.20;;
70487;SDS011;57976;48.174;16.370;2024-01-16T06:59:00;6.80;;;1.30;;
70487;SDS011;57976;48.174;16.370;2024-01-16T07:01:08;4.20;;;1.00;;
70487;SDS011;57976;48.174;16.370;2024-01-16T07:03:13;3.90;;;0.90;;
70487;SDS011;57976;48.174;16.370;2024-01-16T07:05:18;4.40;;;1.00;;
70487;SDS011;57976;48.174;16.370;2024-01-16T07:07:23;5.20;;;1.20;;
70487;SDS011;57976;48.174;16.370;2024-01-16T07:09:28;4.10;;;0.90;;
70487;SDS011;57976;48.174;16.370;2024-01-16T07:11:33;4.50;;;1.00;;
70487;SDS011;57976;48.174;16.370;2024-01-16T07:13:40;4.70;;;1.00;;
70487;SDS011;57976;48.174;16.370;2024-01-16T07:15:49;3.80;;;0.90;;
70487;SDS011;57976;48.174;16.370;2024-01-16T07:17:57;4.30;;;0.90;;
70487;SDS011;57976;48.174;16.370;2024-01-16T07:20:01;3.40;;;0.80;;
70487;SDS011;57976;48.174;16.370;2024-01-16T07:22:12;5.10;;;1.20;;
70487;SDS011;57976;48.174;16.370;2024-01-16T07:24:16;5.10;;;1.00;;
70487;SDS011;57976;48.174;16.370;2024-01-16T07:26:21;5.40;;;1.00;;
70487;SDS011;57976;48.174;16.370;2024-01-16T07:28:28;4.40;;;1.00;;
70487;SDS011;57976;48.174;16.370;2024-01-16T07:30:39;6.70;;;1.00;;
70487;SDS011;57976;48.174;16.370;2024-01-16T07:32:44;4.50;;;0.90;;
70487;SDS011;57976;48.174;16.370;2024-01-16T07:34:49;4.70;;;1.00;;
70487;SDS011;57976;48.174;16.370;2024-01-16T07:36:53;3.70;;;1.00;;
70487;SDS011;57976;48.174;16.370;2024-01-16T07:39:02;5.50;;;1.10;;
70487;SDS011;57976;48.174;16.370;2024-01-16T07:41:06;4.30;;;0.90;;
70487;SDS011;57976;48.174;16.370;2024-01-16T07:43:11;4.80;;;1.00;;
70487;SDS011;57976;48.174;16.370;2024-01-16T07:45:16;6.00;;;1.00;;
70487;SDS011;57976;48.174;16.370;2024-01-16T07:47:21;5.00;;;1.10;;
70487;SDS011;57976;48.174;16.370;2024-01-16T07:49:26;5.80;;;1.00;;
70487;SDS011;57976;48.174;16.370;2024-01-16T07:51:31;4.30;;;1.00;;
70487;SDS011;57976;48.174;16.370;2024-01-16T07:53:36;5.60;;;0.80;;
70487;SDS011;57976;48.174;16.370;2024-01-16T07:55:41;4.20;;;0.90;;
70487;SDS011;57976;48.174;16.370;2024-01-16T07:57:49;4.40;;;1.00;;
70487;SDS011;57976;48.174;16.370;2024-01-16T07:59:54;4.20;;;1.00;;
70487;SDS011;57976;48.174;16.370;2024-01-16T08:01:59;3.90;;;0.80;;
70487;SDS011;57976;48.174;16.370;2024-01-16T08:04:07;3.40;;;0.90;;
70487;SDS011;57976;48.174;16.370;2024-01-16T08:06:12;4.50;;;0.90;;
70487;SDS011;57976;48.174;16.370;2024-01-16T08:08:22;4.80;;;1.00;;
70487;SDS011;57976;48.174;16.370;2024-01-16T08:10:27;7.10;;;1.00;;
70487;SDS011;57976;48.174;16.370;2024-01-16T08:12:34;4.30;;;1.10;;
70487;SDS011;57976;48.174;16.370;2024-01-16T08:14:39;3.70;;;0.70;;
70487;SDS011;57976;48.174;16.370;2024-01-16T08:16:47;4.70;;;0.80;;
70487;SDS011;57976;48.174;16.370;2024-01-16T08:18:52;5.30;;;1.20;;
70487;SDS011;57976;48.174;16.370;2024-01-16T08:20:57;5.50;;;1.10;;
70487;SDS011;57976;48.174;16.370;2024-01-16T08:23:02;4.50;;;1.00;;
70487;SDS011;57976;48.174;16.370;2024-01-16T08:25:12;4.60;;;1.00;;
70487;SDS011;57976;48.174;16.370;2024-01-16T08:27:18;4.30;;;1.00;;
70487;SDS011;57976;48.174;16.370;2024-01-16T08:29:23;3.70;;;0.80;;
70487;SDS011;57976;48.174;16.370;2024-01-16T08:31:28;5.40;;;1.00;;
70487;SDS011;57976;48.174;16.370;2024-01-16T08:33:33;5.00;;;0.90;;
70487;SDS011;57976;48.174;16.370;2024-01-16T08:48:21;4.20;;;1.00;;
70487;SDS011;57976;48.174;16.370;2024-01-16T08:50:26;5.90;;;1.10;;
70487;SDS011;57976;48.174;16.370;2024-01-16T08:52:31;5.90;;;1.00;;
70487;SDS011;57976;48.174;16.370;2024-01-16T08:54:39;5.60;;;1.10;;
70487;SDS011;57976;48.174;16.370;2024-01-16T08:56:46;4.30;;;1.00;;
70487;SDS011;57976;48.174;16.370;2024-01-16T08:58:51;5.40;;;1.10;;
70487;SDS011;57976;48.174;16.370;2024-01-16T09:00:56;4.50;;;1.00;;
70487;SDS011;57976;48.174;16.370;2024-01-16T09:03:00;4.80;;;1.00;;
70487;SDS011;57976;48.174;16.370;2024-01-16T09:05:08;4.40;;;1.00;;
70487;SDS011;57976;48.174;16.370;2024-01-16T09:07:16;3.80;;;1.00;;
70487;SDS011;57976;48.174;16.370;2024-01-16T09:09:21;3.70;;;0.80;;
70487;SDS011;57976;48.174;16.370;2024-01-16T09:11:31;5.00;;;1.00;;
70487;SDS011;57976;48.174;16.370;2024-01-16T09:13:36;4.60;;;0.90;;
70487;SDS011;57976;48.174;16.370;2024-01-16T09:15:41;5.20;;;0.80;;
70487;SDS011;57976;48.174;16.370;2024-01-16T09:17:46;3.90;;;0.80;;
70487;SDS011;57976;48.174;16.370;2024-01-16T09:19:55;5.10;;;0.90;;
70487;SDS011;57976;48.174;16.370;2024-01-16T09:22:03;3.70;;;0.80;;
70487;SDS011;57976;48.174;16.370;2024-01-16T09:24:08;7.10;;;1.10;;
70487;SDS011;57976;48.174;16.370;2024-01-16T09:26:14;8.20;;;2.20;;
70487;SDS011;57976;48.174;16.370;2024-01-16T09:28:19;6.70;;;1.00;;
70487;SDS011;57976;48.174;16.370;2024-01-16T09:30:27;5.00;;;1.10;;
70487;SDS011;57976;48.174;16.370;2024-01-16T09:32:32;6.00;;;1.60;;
70487;SDS011;57976;48.174;16.370;2024-01-16T09:34:37;5.60;;;1.20;;
70487;SDS011;57976;48.174;16.370;2024-01-16T09:36:41;4.10;;;1.00;;
70487;SDS011;57976;48.174;16.370;2024-01-16T09:38:46;4.40;;;1.20;;
70487;SDS011;57976;48.174;16.370;2024-01-16T09:40:51;5.80;;;1.10;;
70487;SDS011;57976;48.174;16.370;2024-01-16T09:42:56;7.40;;;1.10;;
70487;SDS011;57976;48.174;16.370;2024-01-16T09:45:01;4.40;;;1.20;;
70487;SDS011;57976;48.174;16.370;2024-01-16T09:47:07;4.90;;;1.10;;
70487;SDS011;57976;48.174;16.370;2024-01-16T09:49:13;5.10;;;1.10;;
70487;SDS011;57976;48.174;16.370;2024-01-16T09:51:20;4.60;;;1.10;;
70487;SDS011;57976;48.174;16.370;2024-01-16T09:53:25;5.00;;;1.10;;
70487;SDS011;57976;48.174;16.370;2024-01-16T09:55:31;4.90;;;1.00;;
70487;SDS011;57976;48.174;16.370;2024-01-16T09:57:36;3.90;;;1.00;;
70487;SDS011;57976;48.174;16.370;2024-01-16T09:59:43;5.10;;;1.00;;
70487;SDS011;57976;48.174;16.370;2024-01-16T10:01:49;5.40;;;1.20;;
70487;SDS011;57976;48.174;16.370;2024-01-16T10:03:57;4.40;;;1.00;;
70487;SDS011;57976;48.174;16.370;2024-01-16T10:06:03;5.70;;;0.90;;
70487;SDS011;57976;48.174;16.370;2024-01-16T10:08:22;4.20;;;0.90;;
70487;SDS011;57976;48.174;16.370;2024-01-16T10:10:28;4.90;;;0.90;;
70487;SDS011;57976;48.174;16.370;2024-01-16T10:12:49;4.40;;;0.90;;
70487;SDS011;57976;48.174;16.370;2024-01-16T10:15:01;4.60;;;1.00;;
70487;SDS011;57976;48.174;16.370;2024-01-16T10:17:08;4.80;;;1.00;;
70487;SDS011;57976;48.174;16.370;2024-01-16T10:19:13;5.40;;;1.20;;
70487;SDS011;57976;48.174;16.370;2024-01-16T10:21:21;4.20;;;0.80;;
70487;SDS011;57976;48.174;16.370;2024-01-16T10:23:27;4.50;;;1.00;;
70487;SDS011;57976;48.174;16.370;2024-01-16T10:25:33;5.50;;;1.00;;
70487;SDS011;57976;48.174;16.370;2024-01-16T10:27:38;5.40;;;1.10;;
70487;SDS011;57976;48.174;16.370;2024-01-16T10:29:45;5.70;;;1.00;;
70487;SDS011;57976;48.174;16.370;2024-01-16T10:31:59;5.30;;;1.40;;
70487;SDS011;57976;48.174;16.370;2024-01-16T10:34:06;5.20;;;1.20;;
70487;SDS011;57976;48.174;16.370;2024-01-16T10:36:23;5.50;;;1.20;;
70487;SDS011;57976;48.174;16.370;2024-01-16T10:38:28;4.50;;;1.20;;
70487;SDS011;57976;48.174;16.370;2024-01-16T10:40:33;4.40;;;0.90;;
70487;SDS011;57976;48.174;16.370;2024-01-16T10:42:41;4.40;;;0.90;;
70487;SDS011;57976;48.174;16.370;2024-01-16T10:44:53;6.00;;;1.40;;
70487;SDS011;57976;48.174;16.370;2024-01-16T10:47:10;4.30;;;1.00;;
70487;SDS011;57976;48.174;16.370;2024-01-16T10:49:15;6.20;;;1.30;;
70487;SDS011;57976;48.174;16.370;2024-01-16T10:51:26;7.10;;;1.10;;
70487;SDS011;57976;48.174;16.370;2024-01-16T10:53:34;5.50;;;1.30;;
70487;SDS011;57976;48.174;16.370;2024-01-16T10:55:43;5.60;;;1.10;;
70487;SDS011;57976;48.174;16.370;2024-01-16T10:57:52;6.60;;;1.00;;
70487;SDS011;57976;48.174;16.370;2024-01-16T11:00:02;5.50;;;0.90;;
70487;SDS011;57976;48.174;16.370;2024-01-16T11:02:11;4.90;;;1.00;;
70487;SDS011;57976;48.174;16.370;2024-01-16T11:04:18;5.70;;;1.20;;
70487;SDS011;57976;48.174;16.370;2024-01-16T11:06:23;7.40;;;1.30;;
70487;SDS011;57976;48.174;16.370;2024-01-16T11:08:29;5.00;;;1.20;;
70487;SDS011;57976;48.174;16.370;2024-01-16T11:10:37;6.00;;;1.10;;
70487;SDS011;57976;48.174;16.370;2024-01-16T11:12:46;5.60;;;1.30;;
70487;SDS011;57976;48.174;16.370;2024-01-16T11:14:53;6.20;;;1.50;;
70487;SDS011;57976;48.174;16.370;2024-01-16T11:16:59;6.50;;;1.60;;
70487;SDS011;57976;48.174;16.370;2024-01-16T11:19:05;4.70;;;1.10;;
70487;SDS011;57976;48.174;16.370;2024-01-16T11:21:32;5.80;;;1.00;;
70487;SDS011;57976;48.174;16.370;2024-01-16T11:36:45;6.10;;;1.10;;
70487;SDS011;57976;48.174;16.370;2024-01-16T11:38:55;4.80;;;1.10;;
70487;SDS011;57976;48.174;16.370;2024-01-16T11:41:00;4.00;;;1.00;;
70487;SDS011;57976;48.174;16.370;2024-01-16T11:45:51;4.50;;;1.00;;
70487;SDS011;57976;48.174;16.370;2024-01-16T11:48:07;5.00;;;0.80;;
70487;SDS011;57976;48.174;16.370;2024-01-16T11:50:12;4.00;;;0.80;;
70487;SDS011;57976;48.174;16.370;2024-01-16T11:52:41;4.00;;;0.80;;
70487;SDS011;57976;48.174;16.370;2024-01-16T11:54:48;4.40;;;1.00;;
70487;SDS011;57976;48.174;16.370;2024-01-16T12:01:59;4.80;;;1.10;;
70487;SDS011;57976;48.174;16.370;2024-01-16T12:04:10;4.60;;;0.80;;
70487;SDS011;57976;48.174;16.370;2024-01-16T12:06:17;5.10;;;1.10;;
70487;SDS011;57976;48.174;16.370;2024-01-16T12:08:21;5.50;;;0.70;;
70487;SDS011;57976;48.174;16.370;2024-01-16T12:10:24;4.10;;;1.20;;
70487;SDS011;57976;48.174;16.370;2024-01-16T12:12:27;3.10;;;0.70;;
70487;SDS011;57976;48.174;16.370;2024-01-16T12:14:30;5.00;;;0.90;;
70487;SDS011;57976;48.174;16.370;2024-01-16T12:16:36;5.10;;;0.80;;
70487;SDS011;57976;48.174;16.370;2024-01-16T12:18:39;5.30;;;0.90;;
70487;SDS011;57976;48.174;16.370;2024-01-16T12:20:50;4.30;;;0.80;;
70487;SDS011;57976;48.174;16.370;2024-01-16T12:22:56;4.60;;;0.90;;
70487;SDS011;57976;48.174;16.370;2024-01-16T12:25:00;6.50;;;0.90;;
70487;SDS011;57976;48.174;16.370;2024-01-16T12:27:03;4.20;;;1.00;;
70487;SDS011;57976;48.174;16.370;2024-01-16T12:29:06;3.40;;;0.70;;
70487;SDS011;57976;48.174;16.370;2024-01-16T12:31:09;3.80;;;0.60;;
70487;SDS011;57976;48.174;16.370;2024-01-16T12:33:21;5.40;;;0.90;;
70487;SDS011;57976;48.174;16.370;2024-01-16T12:35:24;3.20;;;0.70;;
70487;SDS011;57976;48.174;16.370;2024-01-16T12:37:27;4.80;;;0.90;;
70487;SDS011;57976;48.174;16.370;2024-01-16T12:39:30;3.60;;;0.80;;
70487;SDS011;57976;48.174;16.370;2024-01-16T12:41:34;4.20;;;0.70;;
70487;SDS011;57976;48.174;16.370;2024-01-16T12:43:44;4.00;;;0.60;;
70487;SDS011;57976;48.174;16.370;2024-01-16T12:46:05;4.50;;;0.60;;
70487;SDS011;57976;48.174;16.370;2024-01-16T12:48:08;3.60;;;0.60;;
70487;SDS011;57976;48.174;16.370;2024-01-16T12:50:19;2.30;;;0.30;;
70487;SDS011;57976;48.174;16.370;2024-01-16T12:52:28;3.80;;;0.40;;
70487;SDS011;57976;48.174;16.370;2024-01-16T12:54:31;2.60;;;0.40;;
70487;SDS011;57976;48.174;16.370;2024-01-16T12:56:35;2.90;;;0.50;;
70487;SDS011;57976;48.174;16.370;2024-01-16T12:58:44;4.40;;;0.50;;
70487;SDS011;57976;48.174;16.370;2024-01-16T13:00:47;3.60;;;0.40;;
70487;SDS011;57976;48.174;16.370;2024-01-16T13:02:51;3.10;;;0.50;;